Aviation Digital Data Service (ADDS)

Output produced by METARs form (1655 UTC 16 June 2019)
found at http://www.aviationweather.gov/metar/data/
 
Forecast for: RJAH (HYAKURI (JASDF) , JP)
Text: TAF RJAH 161106Z 1612/1718 30010KT 9999 FEW030
Forecast period: 1200 UTC 16 June 2019 to 1800 UTC 17 June 2019
Forecast type: FROM: standard forecast or significant change
Winds: from the WNW (300 degrees) at 12 MPH (10 knots; 5.1 m/s)
Visibility: 6 or more miles 10+ km)
Ceiling: at least 12,000 feet AGL
Clouds: few clouds at 3000 feet AGL
Weather: no significant weather forecast for this period
Text: BECMG 1612/1614 27010KT
Forecast period: 1200 UTC 16 June 2019 to 0000 UTC 17 June 2019
Forecast type: BECOMING: Conditions expected to become as follows by 1400 UTC 16 June 2019
Winds: from the W (270 degrees) at 12 MPH (10 knots; 5.1 m/s)
Visibility: 6 or more miles 10+ km)
Ceiling: at least 12,000 feet AGL
Clouds: few clouds at 3000 feet AGL
Weather: no significant weather forecast for this period
Text: BECMG 1700/1703 05006KT
Forecast period: 0000 to 1800 UTC 17 June 2019
Forecast type: BECOMING: Conditions expected to become as follows by 0300 UTC 17 June 2019
Winds: from the NE (50 degrees) at 7 MPH (6 knots; 3.1 m/s)
Visibility: 6 or more miles 10+ km)
Ceiling: at least 12,000 feet AGL
Clouds: few clouds at 3000 feet AGL
Weather: no significant weather forecast for this period